Weather at Berane General Hospital Heliport

Public forecast

Using degrees Celsius for public forecast. Weather courtesy of forecast.io.

Closest aviation weather report (METAR) to Berane General Hospital Heliport

Closest report is Podgorica Airport / Podgorica Golubovci Airbase, 40.2 nm (74.5 km) SW.

2024/05/24 06:30 (retrieved 14 minutes ago)

LYPG 240630Z 34003KT 310V020 CAVOK 20/14 Q1018 NOSIG

Closest aviation forecast (TAF) to Berane General Hospital Heliport

Closest forecast is Podgorica Airport / Podgorica Golubovci Airbase, 40.2 nm (74.5 km) SW.

2024/05/24 06:21 (retrieved 23 minutes ago)

TAF LYPG 240500Z 2406/2506 17008KT 9999 SCT040 TX26/2413Z TN16/2504Z PROB40 TEMPO 2411/2417 TSRA FEW030CB SCT040